Time;durP1;ratioP1;P1;durP2;ratioP2;P2;SDS_P1;SDS_P2;PMS_P1;PMS_P2;Temp;Humidity;BMP_temperature;BMP_pressure;BME280_temperature;BME280_humidity;BME280_pressure;Samples;Min_cycle;Max_cycle;Signal;HPM_P1;HPM_P2
2023/10/16 00:01:38;;;;;;;;;;;10.00;99.90;;;;;;5091053;28;19915;-87
2023/10/16 00:04:06;;;;;;;;;;;10.10;99.90;;;;;;5091706;28;19919;-87
2023/10/16 00:06:33;;;;;;;;;;;10.00;99.90;;;;;;5090840;28;19931;-86
2023/10/16 00:09:22;;;;;;;;;;;10.00;99.90;;;;;;5090971;28;19914;-87
2023/10/16 00:11:47;;;;;;;;;;;10.10;99.90;;;;;;5091870;28;19920;-85
2023/10/16 00:14:24;;;;;;;;;;;10.00;99.90;;;;;;5092088;28;19915;-88
2023/10/16 00:16:50;;;;;;;;;;;10.00;99.90;;;;;;5091175;28;20265;-87
2023/10/16 00:19:16;;;;;;;;;;;10.00;99.90;;;;;;5115752;27;20015;-86
2023/10/16 00:21:44;;;;;;;;;;;9.90;99.90;;;;;;5090393;28;20376;-86
2023/10/16 00:24:11;;;;;;;;;;;9.90;99.90;;;;;;5091751;28;19908;-86
2023/10/16 00:26:36;;;;;;;;;;;9.90;99.90;;;;;;5091506;28;19908;-87
2023/10/16 00:29:17;;;;;;;;;;;9.90;99.90;;;;;;5124112;27;19912;-87
2023/10/16 00:31:51;;;;;;;;;;;10.00;99.90;;;;;;5090781;28;19970;-87
2023/10/16 00:34:20;;;;;;;;;;;9.90;99.90;;;;;;5091552;28;20431;-83
2023/10/16 00:36:46;;;;;;;;;;;9.90;99.90;;;;;;5091645;28;20132;-87
2023/10/16 00:39:14;;;;;;;;;;;9.90;99.90;;;;;;5091660;28;19908;-85
2023/10/16 00:41:40;;;;;;;;;;;9.90;99.90;;;;;;5091410;28;19908;-87
2023/10/16 00:44:06;;;;;;;;;;;9.90;99.90;;;;;;5090043;28;20287;-86
2023/10/16 00:46:37;;;;;;;;;;;9.80;99.90;;;;;;5091433;28;19912;-85
2023/10/16 00:49:06;;;;;;;;;;;9.70;99.90;;;;;;5091052;28;19916;-88
2023/10/16 00:51:36;;;;;;;;;;;9.80;99.90;;;;;;5091157;28;19920;-86
2023/10/16 00:54:02;;;;;;;;;;;9.80;99.90;;;;;;5090678;28;19912;-85
2023/10/16 00:56:28;;;;;;;;;;;9.80;99.90;;;;;;5090691;28;19916;-88
2023/10/16 00:58:57;;;;;;;;;;;9.70;99.90;;;;;;5092136;28;19916;-85
2023/10/16 01:01:25;;;;;;;;;;;9.70;99.90;;;;;;5091890;28;20376;-86
2023/10/16 01:03:56;;;;;;;;;;;9.70;99.90;;;;;;5090005;28;19908;-87
2023/10/16 01:06:37;;;;;;;;;;;9.70;99.90;;;;;;5082709;28;19912;-86
2023/10/16 01:09:09;;;;;;;;;;;9.70;99.90;;;;;;5089352;28;19912;-87
2023/10/16 01:11:37;;;;;;;;;;;9.60;99.90;;;;;;5091011;28;19916;-85
2023/10/16 01:14:05;;;;;;;;;;;9.90;99.90;;;;;;5089716;28;19908;-87
2023/10/16 01:16:31;;;;;;;;;;;9.60;99.90;;;;;;5090888;28;19996;-84
2023/10/16 01:19:00;;;;;;;;;;;9.60;99.90;;;;;;5090294;28;19948;-84
2023/10/16 01:21:27;;;;;;;;;;;9.40;99.90;;;;;;5091118;28;19908;-83
2023/10/16 01:23:52;;;;;;;;;;;9.40;99.90;;;;;;5090517;28;19961;-88
2023/10/16 01:26:18;;;;;;;;;;;9.50;99.90;;;;;;5090655;28;20231;-85
2023/10/16 01:28:44;;;;;;;;;;;9.60;99.90;;;;;;5090595;28;19991;-83
2023/10/16 01:31:09;;;;;;;;;;;9.40;99.90;;;;;;5090404;28;20029;-85
2023/10/16 01:33:35;;;;;;;;;;;9.60;99.90;;;;;;5090309;28;19919;-83
2023/10/16 01:36:00;;;;;;;;;;;9.60;99.90;;;;;;5088968;28;19950;-84
2023/10/16 01:38:27;;;;;;;;;;;9.90;99.90;;;;;;5089838;28;20500;-83
2023/10/16 01:43:34;;;;;;;;;;;9.60;99.90;;;;;;5090188;28;20279;-85
2023/10/16 01:46:03;;;;;;;;;;;9.60;99.90;;;;;;5089281;28;19915;-82
2023/10/16 01:48:29;;;;;;;;;;;9.60;99.90;;;;;;5090871;28;19916;-85
2023/10/16 01:50:56;;;;;;;;;;;9.60;99.90;;;;;;5089217;28;19920;-85
2023/10/16 01:53:25;;;;;;;;;;;9.50;99.90;;;;;;5088515;28;19920;-82
2023/10/16 01:55:54;;;;;;;;;;;9.50;99.90;;;;;;5088168;28;19920;-86
2023/10/16 01:58:23;;;;;;;;;;;9.60;99.90;;;;;;5089620;28;20184;-82
2023/10/16 02:00:50;;;;;;;;;;;9.50;99.90;;;;;;5089951;28;19908;-83
2023/10/16 02:03:17;;;;;;;;;;;9.60;99.90;;;;;;5088731;28;19919;-83
2023/10/16 02:05:45;;;;;;;;;;;9.50;99.90;;;;;;5089992;28;19928;-85
2023/10/16 02:08:12;;;;;;;;;;;9.50;99.90;;;;;;5089523;28;20462;-87
2023/10/16 02:10:38;;;;;;;;;;;9.60;99.90;;;;;;5089591;28;20022;-83
2023/10/16 02:13:03;;;;;;;;;;;9.50;99.90;;;;;;5088243;28;19947;-82
2023/10/16 02:15:29;;;;;;;;;;;9.40;99.90;;;;;;5089351;28;20010;-83
2023/10/16 02:17:55;;;;;;;;;;;9.50;99.90;;;;;;5089166;28;19978;-85
2023/10/16 02:20:26;;;;;;;;;;;9.40;99.90;;;;;;5088340;28;19965;-82
2023/10/16 02:22:53;;;;;;;;;;;9.40;99.90;;;;;;5088223;28;20233;-84
2023/10/16 02:25:18;;;;;;;;;;;9.40;99.90;;;;;;5088027;28;19913;-83
2023/10/16 02:27:44;;;;;;;;;;;9.50;99.90;;;;;;5087404;28;19919;-83
2023/10/16 02:30:28;;;;;;;;;;;9.50;99.90;;;;;;5089562;28;19919;-82
2023/10/16 02:32:59;;;;;;;;;;;9.50;99.90;;;;;;5088210;28;20276;-84
2023/10/16 02:35:25;;;;;;;;;;;9.60;99.90;;;;;;5088414;28;19915;-87
2023/10/16 02:37:57;;;;;;;;;;;9.40;99.90;;;;;;5089849;28;19912;-84
2023/10/16 02:40:26;;;;;;;;;;;9.60;99.90;;;;;;5089379;28;20094;-85
2023/10/16 02:42:56;;;;;;;;;;;9.50;99.90;;;;;;5088406;28;19912;-89
2023/10/16 02:45:25;;;;;;;;;;;9.50;99.90;;;;;;5089711;28;20007;-86
2023/10/16 02:47:51;;;;;;;;;;;9.50;99.90;;;;;;5088063;28;19927;-86
2023/10/16 02:50:18;;;;;;;;;;;9.50;99.90;;;;;;5088442;28;19948;-87
2023/10/16 02:52:45;;;;;;;;;;;9.50;99.90;;;;;;5088292;28;20411;-85
2023/10/16 02:55:11;;;;;;;;;;;9.50;99.90;;;;;;5090186;28;20034;-85
2023/10/16 02:57:40;;;;;;;;;;;9.50;99.90;;;;;;5093246;28;19915;-87
2023/10/16 03:00:17;;;;;;;;;;;9.50;99.90;;;;;;5093580;28;19915;-85
2023/10/16 03:02:43;;;;;;;;;;;9.50;99.90;;;;;;5090442;28;20363;-87
2023/10/16 03:05:21;;;;;;;;;;;9.50;99.90;;;;;;5125557;27;20041;-83
2023/10/16 03:07:48;;;;;;;;;;;9.30;99.90;;;;;;5092223;28;19908;-88
2023/10/16 03:10:16;;;;;;;;;;;9.40;99.90;;;;;;5093373;28;19913;-86
2023/10/16 03:12:42;;;;;;;;;;;9.40;99.90;;;;;;5093470;28;19962;-89
2023/10/16 03:17:54;;;;;;;;;;;9.30;99.90;;;;;;5093407;28;19919;-86
2023/10/16 03:20:23;;;;;;;;;;;9.40;99.90;;;;;;5093298;28;20003;-88
2023/10/16 03:22:53;;;;;;;;;;;9.40;99.90;;;;;;5093232;28;19908;-85
2023/10/16 03:25:50;;;;;;;;;;;9.20;99.90;;;;;;5091613;28;19915;-84
2023/10/16 03:28:11;;;;;;;;;;;9.30;99.90;;;;;;5092381;28;19912;-87
2023/10/16 03:30:39;;;;;;;;;;;9.30;99.90;;;;;;5091570;28;19923;-88
2023/10/16 03:33:05;;;;;;;;;;;9.40;99.90;;;;;;5094000;28;20003;-84
2023/10/16 03:35:31;;;;;;;;;;;9.20;99.90;;;;;;5092298;28;20007;-89
2023/10/16 03:38:20;;;;;;;;;;;9.30;99.90;;;;;;5091832;28;19935;-88
2023/10/16 03:40:50;;;;;;;;;;;9.10;99.90;;;;;;5091813;28;19912;-84
2023/10/16 03:43:19;;;;;;;;;;;9.10;99.90;;;;;;5092848;28;19940;-86
2023/10/16 03:45:44;;;;;;;;;;;9.10;99.90;;;;;;5091621;28;19908;-84
2023/10/16 03:48:10;;;;;;;;;;;9.20;99.90;;;;;;5092830;28;19985;-89
2023/10/16 03:50:38;;;;;;;;;;;9.10;99.90;;;;;;5091445;28;19923;-84
2023/10/16 03:53:07;;;;;;;;;;;9.20;99.90;;;;;;5093031;28;19965;-87
2023/10/16 03:55:39;;;;;;;;;;;9.20;99.90;;;;;;5092496;28;20018;-86
2023/10/16 03:58:05;;;;;;;;;;;9.20;99.90;;;;;;5091669;28;20303;-89
2023/10/16 04:00:50;;;;;;;;;;;9.10;99.90;;;;;;5093481;28;20320;-89
2023/10/16 04:03:17;;;;;;;;;;;9.20;99.90;;;;;;5091398;28;20040;-91
2023/10/16 04:05:45;;;;;;;;;;;9.20;99.90;;;;;;5090664;28;19951;-91
2023/10/16 04:08:14;;;;;;;;;;;9.20;99.90;;;;;;5083003;28;19912;-91
2023/10/16 04:10:46;;;;;;;;;;;9.20;99.90;;;;;;5090385;28;19920;-86
2023/10/16 04:13:12;;;;;;;;;;;9.20;99.90;;;;;;5090617;28;19947;-88
2023/10/16 04:18:18;;;;;;;;;;;9.10;99.90;;;;;;5090555;28;19940;-86
2023/10/16 04:20:44;;;;;;;;;;;9.10;99.90;;;;;;5090896;28;19912;-86
2023/10/16 04:23:29;;;;;;;;;;;9.10;99.90;;;;;;5092397;28;19916;-92
2023/10/16 04:26:29;;;;;;;;;;;9.20;99.90;;;;;;5119690;27;19912;-83
2023/10/16 04:31:44;;;;;;;;;;;9.10;99.90;;;;;;5092250;28;20384;-89
2023/10/16 04:34:25;;;;;;;;;;;9.10;99.90;;;;;;5094639;28;19915;-89
2023/10/16 04:37:24;;;;;;;;;;;9.10;99.90;;;;;;5092817;28;19919;-84
2023/10/16 04:50:29;;;;;;;;;;;9.00;99.90;;;;;;5081236;28;19920;-86
2023/10/16 05:00:54;;;;;;;;;;;9.00;99.90;;;;;;5085019;28;19916;-88
2023/10/16 05:11:32;;;;;;;;;;;9.00;99.90;;;;;;5072717;28;19927;-81
2023/10/16 05:16:53;;;;;;;;;;;9.00;99.90;;;;;;5072609;28;19960;-86
2023/10/16 05:22:03;;;;;;;;;;;8.90;99.90;;;;;;5090592;28;19959;-86
2023/10/16 06:14:14;;;;;;;;;;;9.00;99.90;;;;;;5089180;28;19962;-84
2023/10/16 06:16:47;;;;;;;;;;;9.00;99.90;;;;;;5090204;28;19944;-84
2023/10/16 06:19:19;;;;;;;;;;;8.90;99.90;;;;;;5088834;28;19908;-80
2023/10/16 06:21:46;;;;;;;;;;;9.00;99.90;;;;;;5088214;28;20046;-82
2023/10/16 06:24:56;;;;;;;;;;;8.90;99.90;;;;;;5077160;28;20386;-80
2023/10/16 06:27:19;;;;;;;;;;;8.90;99.90;;;;;;5063440;28;19927;-83
2023/10/16 06:29:51;;;;;;;;;;;9.00;99.90;;;;;;5069544;28;20335;-83
2023/10/16 06:32:20;;;;;;;;;;;9.00;99.90;;;;;;5072939;28;20042;-81
2023/10/16 06:34:49;;;;;;;;;;;8.90;99.90;;;;;;5072772;28;20300;-81
2023/10/16 06:37:18;;;;;;;;;;;9.00;99.90;;;;;;5088703;28;20377;-83
2023/10/16 06:39:44;;;;;;;;;;;8.80;99.90;;;;;;5088708;28;20288;-81
2023/10/16 06:42:17;;;;;;;;;;;8.90;99.90;;;;;;5085256;28;20367;-80
2023/10/16 06:44:56;;;;;;;;;;;8.90;99.90;;;;;;5093022;28;19919;-83
2023/10/16 06:47:41;;;;;;;;;;;9.00;99.90;;;;;;5083983;28;19917;-80
2023/10/16 06:52:49;;;;;;;;;;;8.90;99.90;;;;;;5068340;28;19936;-82
2023/10/16 06:55:16;;;;;;;;;;;9.00;99.90;;;;;;5058039;28;19958;-84
2023/10/16 06:57:42;;;;;;;;;;;9.00;99.90;;;;;;5059715;28;19936;-81
2023/10/16 07:00:09;;;;;;;;;;;9.00;99.90;;;;;;5051911;28;20304;-85
2023/10/16 07:02:36;;;;;;;;;;;9.00;99.90;;;;;;5052490;28;19915;-83
2023/10/16 07:05:05;;;;;;;;;;;9.10;99.90;;;;;;5052451;28;19909;-83
2023/10/16 07:07:31;;;;;;;;;;;;;;;;;;5052004;28;19909;-82
2023/10/16 07:09:59;;;;;;;;;;;;;;;;;;5050988;28;19908;-82
2023/10/16 07:12:26;;;;;;;;;;;;;;;;;;5052030;28;19917;-82
2023/10/16 07:14:55;;;;;;;;;;;;;;;;;;5052104;28;19916;-83
2023/10/16 07:17:21;;;;;;;;;;;;;;;;;;5050670;28;20364;-81
2023/10/16 07:19:48;;;;;;;;;;;;;;;;;;5051524;28;19912;-81
2023/10/16 07:22:16;;;;;;;;;;;;;;;;;;5052600;28;20327;-82
2023/10/16 07:24:42;;;;;;;;;;;;;;;;;;5051557;28;19932;-83
2023/10/16 07:27:12;;;;;;;;;;;;;;;;;;5051698;28;19995;-81
2023/10/16 07:29:38;;;;;;;;;;;;;;;;;;5052078;28;19916;-83
2023/10/16 07:32:04;;;;;;;;;;;;;;;;;;5050710;28;19917;-81
2023/10/16 07:34:31;;;;;;;;;;;;;;;;;;5050342;28;19992;-82
2023/10/16 07:36:58;;;;;;;;;;;;;;;;;;5051858;28;20399;-88
2023/10/16 07:39:24;;;;;;;;;;;;;;;;;;5050291;28;19913;-86
2023/10/16 07:41:52;;;;;;;;;;;;;;;;;;5051667;28;19916;-83
2023/10/16 07:44:18;;;;;;;;;;;;;;;;;;5057901;28;19951;-82
2023/10/16 07:46:44;;;;;;;;;;;;;;;;;;5051797;28;19944;-83
2023/10/16 07:49:10;;;;;;;;;;;;;;;;;;5086465;28;20379;-86
2023/10/16 07:51:36;;;;;;;;;;;;;;;;;;5094112;28;19932;-82
2023/10/16 07:54:06;;;;;;;;;;;;;;;;;;5091685;28;19908;-82
2023/10/16 07:56:33;;;;;;;;;;;;;;;;;;5091601;28;19908;-82
2023/10/16 07:59:18;;;;;;;;;;;;;;;;;;5090371;28;19916;-82
2023/10/16 08:01:52;;;;;;;;;;;9.40;99.90;;;;;;5095617;28;19915;-82
2023/10/16 08:06:52;;;;;;;;;;;;;;;;;;5099972;28;19907;-81
2023/10/16 08:11:58;;;;;;;;;;;;;;;;;;5107204;28;19920;-82
2023/10/16 08:14:24;;;;;;;;;;;;;;;;;;5091285;28;19919;-81
2023/10/16 08:16:58;;;;;;;;;;;;;;;;;;5091412;28;19908;-83
2023/10/16 08:19:24;;;;;;;;;;;;;;;;;;5090711;28;19919;-83
2023/10/16 08:21:50;;;;;;;;;;;;;;;;;;5089935;28;19919;-83
2023/10/16 08:24:21;;;;;;;;;;;;;;;;;;5091729;28;19912;-82
2023/10/16 08:26:48;;;;;;;;;;;;;;;;;;5087755;28;20039;-84
2023/10/16 08:31:43;;;;;;;;;;;;;;;;;;5091449;28;19924;-84
2023/10/16 08:34:09;;;;;;;;;;;;;;;;;;5090701;28;20387;-82
2023/10/16 08:36:35;;;;;;;;;;;;;;;;;;5090758;28;19996;-82
2023/10/16 08:39:10;;;;;;;;;;;;;;;;;;5088724;28;19990;-83
2023/10/16 08:44:21;;;;;;;;;;;;;;;;;;5090154;28;20278;-83
2023/10/16 08:47:33;;;;;;;;;;;;;;;;;;5089063;28;20283;-83
2023/10/16 08:49:33;;;;;;;;;;;;;;;;;;5085530;28;19917;-83
2023/10/16 08:52:10;;;;;;;;;;;;;;;;;;5087717;28;19972;-83
2023/10/16 08:55:00;;;;;;;;;;;;;;;;;;5086488;28;19909;-83
2023/10/16 08:57:26;;;;;;;;;;;;;;;;;;5086754;28;19912;-84
2023/10/16 08:59:52;;;;;;;;;;;;;;;;;;5090094;28;20279;-83
2023/10/16 09:02:18;;;;;;;;;;;;;;;;;;5090189;28;20042;-82
2023/10/16 09:04:44;;;;;;;;;;;;;;;;;;5091692;28;19961;-83
2023/10/16 09:07:16;;;;;;;;;;;;;;;;;;5089857;28;20337;-83
2023/10/16 09:09:42;;;;;;;;;;;;;;;;;;5084280;28;19912;-81
2023/10/16 09:12:11;;;;;;;;;;;;;;;;;;5080264;28;20091;-80
2023/10/16 09:14:40;;;;;;;;;;;;;;;;;;5084323;28;19919;-82
2023/10/16 09:17:06;;;;;;;;;;;;;;;;;;5090076;28;19918;-81
2023/10/16 09:19:35;;;;;;;;;;;;;;;;;;5089832;28;19943;-81
2023/10/16 09:22:04;;;;;;;;;;;;;;;;;;5090610;28;19909;-82
2023/10/16 09:24:30;;;;;;;;;;;;;;;;;;5089210;28;19990;-81
2023/10/16 09:26:56;;;;;;;;;;;;;;;;;;5090426;28;19909;-82
2023/10/16 09:29:22;;;;;;;;;;;;;;;;;;5090049;28;19922;-81
2023/10/16 09:31:48;;;;;;;;;;;;;;;;;;5073321;28;19916;-82
2023/10/16 09:34:17;;;;;;;;;;;;;;;;;;5102483;28;19912;-82
2023/10/16 09:36:46;;;;;;;;;;;;;;;;;;5103232;28;19908;-82
2023/10/16 09:39:18;;;;;;;;;;;;;;;;;;5087305;28;19912;-82
2023/10/16 09:41:46;;;;;;;;;;;;;;;;;;5090175;28;19953;-82
2023/10/16 09:44:36;;;;;;;;;;;;;;;;;;5089836;28;20003;-81
2023/10/16 09:47:25;;;;;;;;;;;;;;;;;;5085701;28;19962;-82
2023/10/16 09:49:48;;;;;;;;;;;;;;;;;;5090037;28;19912;-81
2023/10/16 09:52:17;;;;;;;;;;;;;;;;;;5089726;28;19923;-81
2023/10/16 09:54:45;;;;;;;;;;;;;;;;;;5088018;28;19908;-81
2023/10/16 09:57:13;;;;;;;;;;;;;;;;;;5089769;28;19916;-81
2023/10/16 09:59:39;;;;;;;;;;;;;;;;;;5089740;28;19916;-81
2023/10/16 10:02:16;;;;;;;;;;;;;;;;;;5089434;28;20350;-83
2023/10/16 10:04:45;;;;;;;;;;;;;;;;;;5084376;28;19916;-82
2023/10/16 10:07:11;;;;;;;;;;;;;;;;;;5086223;28;19920;-85
2023/10/16 10:09:44;;;;;;;;;;;;;;;;;;5088497;28;19919;-84
2023/10/16 10:12:14;;;;;;;;;;;;;;;;;;5088678;28;19927;-88
2023/10/16 10:14:40;;;;;;;;;;;;;;;;;;5088099;28;19908;-84
2023/10/16 10:17:09;;;;;;;;;;;;;;;;;;5089103;28;19915;-85
2023/10/16 10:19:41;;;;;;;;;;;;;;;;;;5089771;28;19912;-83
2023/10/16 10:22:11;;;;;;;;;;;;;;;;;;5090000;28;19908;-83
2023/10/16 10:24:38;;;;;;;;;;;;;;;;;;5089740;28;20016;-84
2023/10/16 10:27:05;;;;;;;;;;;;;;;;;;5089761;28;20007;-82
2023/10/16 10:29:31;;;;;;;;;;;;;;;;;;5089903;28;19937;-87
2023/10/16 10:31:59;;;;;;;;;;;;;;;;;;5088562;28;19924;-85
2023/10/16 10:34:28;;;;;;;;;;;;;;;;;;5089760;28;19908;-87
2023/10/16 10:36:54;;;;;;;;;;;;;;;;;;5089777;28;20024;-82
2023/10/16 10:39:21;;;;;;;;;;;;;;;;;;5090595;28;20359;-85
2023/10/16 10:41:51;;;;;;;;;;;;;;;;;;5088368;28;20269;-82
2023/10/16 10:44:19;;;;;;;;;;;;;;;;;;5088463;28;19954;-83
2023/10/16 10:46:49;;;;;;;;;;;;;;;;;;5089731;28;20034;-86
2023/10/16 10:49:15;;;;;;;;;;;;;;;;;;5088332;28;19947;-85
2023/10/16 10:51:44;;;;;;;;;;;;;;;;;;5089589;28;19963;-85
2023/10/16 10:54:12;;;;;;;;;;;;;;;;;;5088332;28;19912;-85
2023/10/16 10:56:39;;;;;;;;;;;;;;;;;;5089611;28;19908;-86
2023/10/16 10:59:10;;;;;;;;;;;;;;;;;;5088321;28;19935;-87
2023/10/16 11:01:44;;;;;;;;;;;;;;;;;;5089697;28;19908;-86
2023/10/16 11:04:15;;;;;;;;;;;;;;;;;;5089432;28;19918;-86
2023/10/16 11:06:52;;;;;;;;;;;;;;;;;;5089485;28;19914;-84
2023/10/16 11:09:18;;;;;;;;;;;;;;;;;;5088171;28;19912;-88
2023/10/16 11:11:45;;;;;;;;;;;;;;;;;;5089307;28;20578;-87
2023/10/16 11:14:12;;;;;;;;;;;;;;;;;;5089415;28;19931;-89
2023/10/16 11:16:40;;;;;;;;;;;;;;;;;;5091149;28;19904;-88
2023/10/16 11:19:09;;;;;;;;;;;;;;;;;;5092047;28;20076;-87
2023/10/16 11:21:36;;;;;;;;;;;;;;;;;;5092996;28;19912;-85
2023/10/16 11:24:05;;;;;;;;;;;;;;;;;;5091908;28;20376;-84
2023/10/16 11:26:32;;;;;;;;;;;;;;;;;;5091919;28;19970;-89
2023/10/16 11:29:00;;;;;;;;;;;;;;;;;;5093029;28;20029;-88
2023/10/16 11:31:26;;;;;;;;;;;;;;;;;;5093343;28;19920;-83
2023/10/16 11:34:00;;;;;;;;;;;;;;;;;;5093812;28;19912;-89
2023/10/16 11:36:27;;;;;;;;;;;;;;;;;;5092967;28;19912;-83
2023/10/16 11:38:53;;;;;;;;;;;;;;;;;;5093687;28;19961;-83
2023/10/16 11:41:20;;;;;;;;;;;;;;;;;;5091414;28;19912;-86
2023/10/16 11:43:53;;;;;;;;;;;;;;;;;;5092927;28;19912;-87
2023/10/16 11:46:28;;;;;;;;;;;;;;;;;;5091398;28;19908;-88
2023/10/16 11:48:57;;;;;;;;;;;;;;;;;;5093292;28;19916;-85
2023/10/16 11:51:23;;;;;;;;;;;;;;;;;;5093240;28;19923;-84
2023/10/16 11:53:49;;;;;;;;;;;;;;;;;;5091194;28;19908;-85
2023/10/16 11:56:18;;;;;;;;;;;;;;;;;;5092533;28;19904;-84
2023/10/16 11:58:44;;;;;;;;;;;;;;;;;;5092441;28;20396;-87
2023/10/16 12:01:11;;;;;;;;;;;;;;;;;;5092409;28;19926;-87
2023/10/16 12:03:37;;;;;;;;;;;;;;;;;;5092246;28;19908;-88
2023/10/16 12:06:07;;;;;;;;;;;;;;;;;;5092222;28;19904;-85
2023/10/16 12:08:33;;;;;;;;;;;;;;;;;;5092371;28;19966;-86
2023/10/16 12:11:01;;;;;;;;;;;;;;;;;;5092042;28;20049;-86
2023/10/16 12:13:27;;;;;;;;;;;;;;;;;;5091564;28;20372;-83
2023/10/16 12:15:53;;;;;;;;;;;;;;;;;;5092878;28;19908;-87
2023/10/16 12:18:21;;;;;;;;;;;;;;;;;;5092020;28;19912;-88
2023/10/16 12:20:47;;;;;;;;;;;;;;;;;;5092136;28;19908;-85
2023/10/16 12:23:12;;;;;;;;;;;;;;;;;;5091918;28;19909;-88
2023/10/16 12:25:39;;;;;;;;;;;;;;;;;;5092106;28;20310;-83
2023/10/16 12:28:08;;;;;;;;;;;;;;;;;;5091005;28;19931;-85
2023/10/16 12:30:36;;;;;;;;;;;;;;;;;;5090484;28;20375;-83
2023/10/16 12:33:05;;;;;;;;;;;;;;;;;;5090423;28;20032;-86
2023/10/16 12:35:30;;;;;;;;;;;;;;;;;;5091630;28;19908;-86
2023/10/16 12:37:56;;;;;;;;;;;;;;;;;;5092763;28;19916;-83
2023/10/16 12:40:33;;;;;;;;;;;;;;;;;;5091555;28;20425;-85
2023/10/16 12:42:59;;;;;;;;;;;;;;;;;;5092233;28;19935;-83
2023/10/16 12:45:25;;;;;;;;;;;;;;;;;;5092329;28;20295;-87
2023/10/16 12:47:51;;;;;;;;;;;;;;;;;;5091388;28;19916;-84
2023/10/16 12:50:17;;;;;;;;;;;;;;;;;;5091347;28;19908;-84
2023/10/16 12:52:44;;;;;;;;;;;;;;;;;;5090159;28;20002;-84
2023/10/16 12:55:09;;;;;;;;;;;;;;;;;;5090097;28;19962;-85
2023/10/16 12:57:35;;;;;;;;;;;;;;;;;;5091461;28;19951;-84
2023/10/16 13:00:13;;;;;;;;;;;;;;;;;;5091315;28;19908;-83
2023/10/16 13:02:42;;;;;;;;;;;;;;;;;;5091211;28;19954;-85
2023/10/16 13:05:13;;;;;;;;;;;;;;;;;;5091291;28;19943;-85
2023/10/16 13:07:40;;;;;;;;;;;;;;;;;;5091108;28;19908;-86
2023/10/16 13:10:08;;;;;;;;;;;;;;;;;;5091124;28;19908;-87
2023/10/16 13:12:34;;;;;;;;;;;;;;;;;;5090882;28;19920;-85
2023/10/16 13:15:00;;;;;;;;;;;;;;;;;;5091861;28;20275;-84
2023/10/16 13:17:26;;;;;;;;;;;;;;;;;;5091421;28;20292;-86
2023/10/16 13:19:53;;;;;;;;;;;;;;;;;;5089690;28;19912;-88
2023/10/16 13:22:20;;;;;;;;;;;;;;;;;;5090863;28;20379;-86
2023/10/16 13:24:46;;;;;;;;;;;;;;;;;;5089444;28;19947;-86
2023/10/16 13:27:12;;;;;;;;;;;;;;;;;;5090550;28;20348;-84
2023/10/16 13:29:40;;;;;;;;;;;;;;;;;;5090742;28;19915;-84
2023/10/16 13:32:09;;;;;;;;;;;;;;;;;;5090297;28;19939;-87
2023/10/16 13:34:36;;;;;;;;;;;;;;;;;;5090434;28;19942;-83
2023/10/16 13:37:08;;;;;;;;;;;;;;;;;;5089630;28;19908;-83
2023/10/16 13:39:38;;;;;;;;;;;;;;;;;;5088895;28;19930;-84
2023/10/16 13:42:08;;;;;;;;;;;;;;;;;;5089118;28;20340;-84
2023/10/16 13:44:35;;;;;;;;;;;;;;;;;;5090483;28;19908;-82
2023/10/16 13:47:04;;;;;;;;;;;;;;;;;;5089703;28;19969;-87
2023/10/16 13:49:30;;;;;;;;;;;;;;;;;;5091232;28;20387;-88
2023/10/16 13:51:57;;;;;;;;;;;;;;;;;;5090160;28;19916;-88
2023/10/16 13:54:24;;;;;;;;;;;;;;;;;;5088895;28;20259;-89
2023/10/16 13:56:50;;;;;;;;;;;;;;;;;;5088927;28;19912;-88
2023/10/16 13:59:18;;;;;;;;;;;;;;;;;;5088755;28;19908;-85
2023/10/16 14:01:44;;;;;;;;;;;;;;;;;;5088777;28;19951;-88
2023/10/16 14:04:21;;;;;;;;;;;;;;;;;;5090126;28;20371;-84
2023/10/16 14:06:51;;;;;;;;;;;;;;;;;;5088599;28;20386;-85
2023/10/16 14:09:20;;;;;;;;;;;;;;;;;;5089940;28;19908;-84
2023/10/16 14:11:49;;;;;;;;;;;;;;;;;;5088534;28;20372;-86
2023/10/16 14:14:21;;;;;;;;;;;;;;;;;;5090001;28;19908;-86
2023/10/16 14:16:49;;;;;;;;;;;;;;;;;;5088725;28;19947;-88
2023/10/16 14:19:15;;;;;;;;;;;;;;;;;;5089939;28;19922;-86
2023/10/16 14:21:41;;;;;;;;;;;;;;;;;;5088736;28;20029;-84
2023/10/16 14:24:07;;;;;;;;;;;;;;;;;;5088588;28;19908;-84
2023/10/16 14:26:34;;;;;;;;;;;;;;;;;;5085802;28;19912;-89
2023/10/16 14:29:00;;;;;;;;;;;;;;;;;;5088383;28;20292;-85
2023/10/16 14:31:28;;;;;;;;;;;;;;;;;;5088484;28;19923;-84
2023/10/16 14:33:54;;;;;;;;;;;;;;;;;;5089436;28;19908;-87
2023/10/16 14:36:20;;;;;;;;;;;;;;;;;;5087328;28;19961;-84
2023/10/16 14:38:46;;;;;;;;;;;;;;;;;;5088167;28;19908;-83
2023/10/16 14:41:19;;;;;;;;;;;;;;;;;;5089650;28;20374;-83
2023/10/16 14:43:48;;;;;;;;;;;;;;;;;;5089553;28;19909;-87
2023/10/16 14:46:15;;;;;;;;;;;;;;;;;;5088152;28;19912;-84
2023/10/16 14:48:44;;;;;;;;;;;;;;;;;;5088498;28;19916;-86
2023/10/16 14:51:12;;;;;;;;;;;;;;;;;;5090371;28;19942;-86
2023/10/16 14:53:39;;;;;;;;;;;;;;;;;;5092736;28;20367;-83
2023/10/16 14:56:06;;;;;;;;;;;;;;;;;;5092565;28;19918;-83
2023/10/16 14:58:34;;;;;;;;;;;;;;;;;;5092929;28;20330;-90
2023/10/16 15:01:09;;;;;;;;;;;;;;;;;;5091301;28;19916;-83
2023/10/16 15:03:38;;;;;;;;;;;;;;;;;;5091438;28;19912;-88
2023/10/16 15:06:04;;;;;;;;;;;;;;;;;;5103854;28;19912;-84
2023/10/16 15:08:30;;;;;;;;;;;;;;;;;;5104361;28;19921;-84
2023/10/16 15:10:58;;;;;;;;;;;;;;;;;;5082585;28;20308;-90
2023/10/16 15:13:27;;;;;;;;;;;;;;;;;;5072618;28;20372;-84
2023/10/16 15:15:53;;;;;;;;;;;;;;;;;;5104137;28;20383;-90
2023/10/16 15:18:19;;;;;;;;;;;;;;;;;;5093540;28;19908;-84
2023/10/16 15:20:45;;;;;;;;;;;;;;;;;;5091367;28;20002;-91
2023/10/16 15:23:11;;;;;;;;;;;;;;;;;;5093087;28;20093;-83
2023/10/16 15:25:37;;;;;;;;;;;;;;;;;;5093627;28;20390;-89
2023/10/16 15:28:03;;;;;;;;;;;;;;;;;;5081988;28;19913;-88
2023/10/16 15:30:29;;;;;;;;;;;;;;;;;;5082144;28;19969;-89
2023/10/16 15:32:55;;;;;;;;;;;;;;;;;;5093180;28;20341;-83
2023/10/16 15:35:23;;;;;;;;;;;;;;;;;;5093040;28;19912;-90
2023/10/16 15:37:49;;;;;;;;;;;;;;;;;;5093289;28;20280;-84
2023/10/16 15:40:18;;;;;;;;;;;;;;;;;;5091458;28;19912;-86
2023/10/16 15:42:57;;;;;;;;;;;;;;;;;;5091218;28;19908;-83
2023/10/16 15:45:25;;;;;;;;;;;;;;;;;;5077961;28;20041;-84
2023/10/16 15:47:51;;;;;;;;;;;;;;;;;;5104802;28;19916;-83
2023/10/16 15:50:17;;;;;;;;;;;;;;;;;;5073249;28;20387;-92
2023/10/16 15:52:43;;;;;;;;;;;;;;;;;;5092110;28;20425;-89
2023/10/16 15:55:09;;;;;;;;;;;;;;;;;;5092942;28;19912;-83
2023/10/16 15:57:35;;;;;;;;;;;;;;;;;;5091785;28;19935;-82
2023/10/16 16:00:01;;;;;;;;;;;;;;;;;;5092515;28;20054;-87
2023/10/16 16:02:28;;;;;;;;;;;;;;;;;;5076785;28;20054;-87
2023/10/16 16:04:54;;;;;;;;;;;;;;;;;;5090977;28;19908;-85
2023/10/16 16:07:21;;;;;;;;;;;;;;;;;;5091875;28;19977;-85
2023/10/16 16:09:47;;;;;;;;;;;;;;;;;;5090826;28;19908;-85
2023/10/16 16:12:14;;;;;;;;;;;;;;;;;;5092103;28;19916;-83
2023/10/16 16:14:42;;;;;;;;;;;;;;;;;;5091097;28;19923;-84
2023/10/16 16:17:09;;;;;;;;;;;;;;;;;;5078954;28;19920;-84
2023/10/16 16:19:35;;;;;;;;;;;;;;;;;;5105100;28;19919;-86
2023/10/16 16:22:00;;;;;;;;;;;;;;;;;;5075648;28;19916;-82
2023/10/16 16:24:26;;;;;;;;;;;;;;;;;;5088488;28;20031;-83
2023/10/16 16:26:52;;;;;;;;;;;;;;;;;;5091906;28;19912;-82
2023/10/16 16:29:18;;;;;;;;;;;;;;;;;;5090740;28;19908;-83
2023/10/16 16:31:44;;;;;;;;;;;;;;;;;;5090253;28;19920;-83
2023/10/16 16:34:10;;;;;;;;;;;;;;;;;;5092691;28;20371;-83
2023/10/16 16:36:40;;;;;;;;;;;;;;;;;;5075330;28;19909;-86
2023/10/16 16:39:12;;;;;;;;;;;;;;;;;;5083442;28;20303;-83
2023/10/16 16:41:38;;;;;;;;;;;;;;;;;;5097520;28;19916;-84
2023/10/16 16:44:04;;;;;;;;;;;;;;;;;;5109861;28;19907;-83
2023/10/16 16:46:30;;;;;;;;;;;;;;;;;;5099478;28;20380;-83
2023/10/16 16:49:00;;;;;;;;;;;;;;;;;;5076300;28;19956;-83
2023/10/16 16:51:26;;;;;;;;;;;;;;;;;;5087245;28;19920;-82
2023/10/16 16:53:52;;;;;;;;;;;;;;;;;;5069897;28;19916;-85
2023/10/16 16:56:18;;;;;;;;;;;;;;;;;;5069911;28;19920;-83
2023/10/16 16:58:44;;;;;;;;;;;;;;;;;;5067724;28;19920;-82
2023/10/16 17:01:10;;;;;;;;;;;;;;;;;;5070301;28;19913;-87
2023/10/16 17:03:36;;;;;;;;;;;;;;;;;;5054652;28;19920;-84
2023/10/16 17:06:02;;;;;;;;;;;;;;;;;;5070535;28;20042;-88
2023/10/16 17:08:28;;;;;;;;;;;;;;;;;;5052368;28;19916;-85
2023/10/16 17:10:55;;;;;;;;;;;;;;;;;;5075027;28;20388;-83
2023/10/16 17:13:21;;;;;;;;;;;;;;;;;;5069464;28;20383;-84
2023/10/16 17:15:47;;;;;;;;;;;;;;;;;;5050075;28;19921;-89
2023/10/16 17:18:14;;;;;;;;;;;;;;;;;;5062396;28;19919;-84
2023/10/16 17:20:40;;;;;;;;;;;;;;;;;;5070853;28;20471;-84
2023/10/16 17:23:06;;;;;;;;;;;;;;;;;;5069609;28;19954;-83
2023/10/16 17:25:32;;;;;;;;;;;;;;;;;;5051214;28;19919;-85
2023/10/16 17:27:58;;;;;;;;;;;;;;;;;;5065140;28;19912;-82
2023/10/16 17:30:24;;;;;;;;;;;;;;;;;;5069621;28;19969;-86
2023/10/16 17:32:50;;;;;;;;;;;;;;;;;;5067307;28;20350;-85
2023/10/16 17:35:27;;;;;;;;;;;;;;;;;;5047825;28;19913;-83
2023/10/16 17:37:52;;;;;;;;;;;;;;;;;;5068705;28;19916;-83
2023/10/16 17:40:18;;;;;;;;;;;;;;;;;;5051169;28;19920;-87
2023/10/16 17:42:46;;;;;;;;;;;;;;;;;;5051555;28;20350;-88
2023/10/16 17:45:12;;;;;;;;;;;;;;;;;;5069174;28;19981;-83
2023/10/16 17:47:39;;;;;;;;;;;;;;;;;;5077529;28;20360;-84
2023/10/16 17:50:05;;;;;;;;;;;;;;;;;;5088208;28;19915;-89